createdAt,value
2019-05-22T00:03:47.327Z,47.47
2019-05-22T00:09:09.883Z,41.57
2019-05-22T00:14:29.347Z,45.20
2019-05-22T00:19:49.960Z,41.08
2019-05-22T00:25:10.629Z,38.70
2019-05-22T00:30:32.098Z,39.63
2019-05-22T00:35:52.776Z,40.63
2019-05-22T00:41:11.919Z,43.10
2019-05-22T00:46:30.450Z,43.17
2019-05-22T00:52:07.014Z,40.80
2019-05-22T00:57:43.515Z,39.33
2019-05-22T01:03:02.686Z,36.03
2019-05-22T01:08:22.169Z,34.33
2019-05-22T01:13:42.401Z,31.93
2019-05-22T01:19:02.747Z,30.10
2019-05-22T01:24:23.328Z,29.47
2019-05-22T01:29:43.793Z,29.30
2019-05-22T01:35:09.191Z,31.20
2019-05-22T01:40:44.583Z,32.88
2019-05-22T01:46:03.859Z,39.67
2019-05-22T01:51:22.640Z,46.30
2019-05-22T01:56:42.035Z,38.10
2019-05-22T02:02:01.127Z,36.87
2019-05-22T02:07:21.113Z,39.13
2019-05-22T02:12:51.325Z,41.77
2019-05-22T02:18:15.202Z,39.27
2019-05-22T02:23:35.711Z,40.57
2019-05-22T02:28:55.359Z,43.13
2019-05-22T02:34:15.136Z,38.63
2019-05-22T02:39:35.361Z,42.83
2019-05-22T02:44:54.593Z,27.00
2019-05-22T02:50:15.086Z,26.97
2019-05-22T02:55:33.735Z,28.27
2019-05-22T03:01:05.362Z,29.83
2019-05-22T03:06:24.095Z,22.60
2019-05-22T03:11:55.313Z,22.87
2019-05-22T03:17:30.422Z,16.93
2019-05-22T03:22:57.117Z,18.80
2019-05-22T03:28:17.157Z,21.03
2019-05-22T03:33:39.110Z,19.23
2019-05-22T03:38:58.135Z,20.97
2019-05-22T03:44:19.519Z,25.63
2019-05-22T03:49:38.593Z,27.63
2019-05-22T03:54:57.787Z,25.93
2019-05-22T04:00:19.644Z,21.15
2019-05-22T04:05:38.832Z,21.67
2019-05-22T04:11:04.785Z,19.60
2019-05-22T04:16:28.381Z,17.77
2019-05-22T04:21:47.379Z,17.47
2019-05-22T04:27:06.874Z,16.43
2019-05-22T04:32:33.314Z,15.38
2019-05-22T04:38:04.585Z,15.10
2019-05-22T04:43:24.360Z,16.23
2019-05-22T04:48:46.117Z,14.65
2019-05-22T04:54:04.546Z,14.97
2019-05-22T04:59:24.051Z,16.90
2019-05-22T05:04:46.934Z,13.83
2019-05-22T05:10:06.956Z,17.17
2019-05-22T05:15:25.566Z,14.67
2019-05-22T05:20:44.615Z,15.10
2019-05-22T05:26:03.526Z,14.77
2019-05-22T05:31:24.061Z,15.17
2019-05-22T05:36:44.363Z,14.40
2019-05-22T05:42:03.588Z,14.75
2019-05-22T05:47:22.635Z,15.10
2019-05-22T05:52:42.049Z,15.60
2019-05-22T05:58:05.294Z,16.00
2019-05-22T06:03:43.068Z,15.57
2019-05-22T06:09:03.597Z,16.33
2019-05-22T06:14:29.179Z,16.93
2019-05-22T06:19:50.741Z,15.87
2019-05-22T06:25:10.697Z,15.70
2019-05-22T06:30:41.328Z,16.17
2019-05-22T06:36:02.610Z,15.10
2019-05-22T06:41:24.186Z,16.30
2019-05-22T06:46:45.545Z,16.80
2019-05-22T06:52:06.288Z,16.03
2019-05-22T06:57:27.320Z,15.00
2019-05-22T07:02:45.959Z,16.97
2019-05-22T07:08:05.904Z,17.27
2019-05-22T07:13:24.666Z,17.30
2019-05-22T07:18:43.543Z,15.73
2019-05-22T07:24:02.112Z,16.77
2019-05-22T07:29:21.171Z,16.50
2019-05-22T07:34:40.174Z,16.47
2019-05-22T07:39:59.017Z,15.37
2019-05-22T07:45:18.096Z,16.37
2019-05-22T07:50:39.061Z,16.83
2019-05-22T07:55:59.837Z,14.53
2019-05-22T08:01:18.571Z,14.30
2019-05-22T08:06:37.311Z,15.33
2019-05-22T08:11:57.433Z,14.27
2019-05-22T08:17:17.578Z,15.77
2019-05-22T08:22:37.824Z,15.17
2019-05-22T08:27:57.011Z,17.57
2019-05-22T08:33:17.133Z,16.00
2019-05-22T08:38:37.461Z,15.40
2019-05-22T08:44:14.301Z,15.93
2019-05-22T08:49:17.240Z,16.00
2019-05-22T08:54:35.977Z,16.50
2019-05-22T08:59:54.712Z,17.40
2019-05-22T09:05:15.020Z,17.85
2019-05-22T09:10:33.946Z,18.07
2019-05-22T09:15:53.781Z,16.17
2019-05-22T09:21:12.367Z,16.20
2019-05-22T09:26:31.878Z,14.33
2019-05-22T09:31:50.831Z,11.73
2019-05-22T09:37:09.765Z,12.50
2019-05-22T09:42:28.928Z,12.47
2019-05-22T09:47:47.853Z,14.30
2019-05-22T09:53:08.940Z,14.30
2019-05-22T09:58:27.792Z,15.30
2019-05-22T10:03:46.435Z,14.57
2019-05-22T10:09:07.471Z,15.60
2019-05-22T10:14:26.163Z,15.73
2019-05-22T10:19:45.062Z,17.90
2019-05-22T10:25:15.664Z,15.80
2019-05-22T10:30:25.632Z,15.47
2019-05-22T10:35:44.260Z,17.03
2019-05-22T10:41:02.945Z,18.60
2019-05-22T10:46:22.113Z,17.07
2019-05-22T10:51:40.736Z,17.67
2019-05-22T10:56:59.512Z,16.87
2019-05-22T11:02:18.325Z,14.70
2019-05-22T11:07:36.957Z,12.87
2019-05-22T11:12:55.882Z,13.10
2019-05-22T11:18:14.627Z,12.03
2019-05-22T11:23:48.675Z,12.70
2019-05-22T11:28:53.584Z,10.97
2019-05-22T11:34:12.387Z,9.47
2019-05-22T11:39:39.403Z,9.80
2019-05-22T11:44:52.681Z,13.00
2019-05-22T11:50:14.602Z,11.80
2019-05-22T11:55:43.934Z,10.13
2019-05-22T12:00:55.460Z,10.10
2019-05-22T12:06:14.671Z,8.80
2019-05-22T12:11:33.487Z,9.77
2019-05-22T12:16:53.538Z,10.10
2019-05-22T12:22:12.485Z,8.90
2019-05-22T12:27:31.230Z,8.73
2019-05-22T12:32:50.501Z,8.37
2019-05-22T12:38:10.227Z,9.90
2019-05-22T12:43:31.725Z,9.03
2019-05-22T12:48:50.371Z,8.63
2019-05-22T12:54:09.339Z,8.83
2019-05-22T12:59:28.283Z,8.40
2019-05-22T13:04:47.802Z,8.47
2019-05-22T13:10:08.968Z,7.23
2019-05-22T13:15:27.816Z,8.17
2019-05-22T13:20:53.045Z,8.40
2019-05-22T13:26:11.909Z,8.40
2019-05-22T13:31:30.553Z,7.53
2019-05-22T13:36:50.756Z,7.40
2019-05-22T13:42:15.203Z,7.60
2019-05-22T13:47:34.340Z,7.73
2019-05-22T13:52:54.364Z,6.93
2019-05-22T13:58:13.287Z,6.63
2019-05-22T14:03:32.536Z,6.43
2019-05-22T14:08:51.351Z,6.90
2019-05-22T14:14:12.715Z,7.30
2019-05-22T14:19:31.440Z,6.63
2019-05-22T14:24:50.153Z,6.40
2019-05-22T14:30:12.302Z,5.43
2019-05-22T14:35:46.972Z,6.23
2019-05-22T14:40:53.126Z,5.47
2019-05-22T14:46:12.384Z,5.70
2019-05-22T14:51:31.767Z,4.90
2019-05-22T14:56:50.872Z,5.67
2019-05-22T15:02:10.278Z,5.77
2019-05-22T15:07:28.953Z,6.60
2019-05-22T15:12:47.934Z,5.83
2019-05-22T15:18:07.321Z,6.23
2019-05-22T15:23:27.587Z,7.20
2019-05-22T15:28:46.763Z,6.90
2019-05-22T15:34:06.263Z,7.37
2019-05-22T15:39:25.592Z,7.10
2019-05-22T15:44:45.010Z,6.67
2019-05-22T15:50:06.270Z,7.00
2019-05-22T15:55:26.617Z,6.40
2019-05-22T16:00:47.700Z,6.53
2019-05-22T16:06:07.612Z,7.17
2019-05-22T16:11:28.421Z,6.57
2019-05-22T16:16:49.214Z,6.40
2019-05-22T16:22:09.450Z,6.03
2019-05-22T16:27:31.165Z,6.03
2019-05-22T16:32:50.996Z,5.63
2019-05-22T16:38:09.821Z,6.67
2019-05-22T16:43:47.446Z,5.80
2019-05-22T16:48:49.598Z,5.50
2019-05-22T16:54:09.585Z,5.73
2019-05-22T16:59:29.124Z,6.73
2019-05-22T17:04:48.738Z,6.90
2019-05-22T17:10:11.176Z,6.40
2019-05-22T17:15:30.778Z,6.67
2019-05-22T17:20:50.379Z,7.40
2019-05-22T17:26:09.286Z,5.90
2019-05-22T17:31:29.671Z,6.03
2019-05-22T17:36:48.343Z,6.33
2019-05-22T17:42:08.966Z,5.10
2019-05-22T17:47:29.393Z,5.40
2019-05-22T17:52:49.155Z,5.70
2019-05-22T17:58:08.764Z,6.00
2019-05-22T18:03:27.450Z,6.37
2019-05-22T18:08:46.279Z,6.80
2019-05-22T18:14:05.944Z,6.77
2019-05-22T18:19:25.160Z,6.23
2019-05-22T18:24:43.864Z,6.90
2019-05-22T18:30:02.583Z,6.93
2019-05-22T18:35:21.445Z,6.58
2019-05-22T18:40:40.394Z,8.47
2019-05-22T18:45:59.357Z,8.60
2019-05-22T18:51:18.503Z,8.30
2019-05-22T18:56:37.199Z,7.57
2019-05-22T19:01:56.243Z,7.73
2019-05-22T19:07:15.092Z,8.27
2019-05-22T19:12:33.939Z,8.30
2019-05-22T19:17:52.772Z,7.43
2019-05-22T19:23:11.635Z,8.30
2019-05-22T19:28:42.851Z,8.80
2019-05-22T19:33:51.033Z,8.97
2019-05-22T19:39:10.508Z,9.97
2019-05-22T19:44:29.069Z,9.30
2019-05-22T19:49:47.745Z,10.03
2019-05-22T19:55:07.801Z,9.20
2019-05-22T20:00:26.459Z,9.97
2019-05-22T20:05:45.874Z,10.10
2019-05-22T20:11:04.989Z,11.70
2019-05-22T20:16:23.993Z,8.90
2019-05-22T20:21:42.609Z,9.30
2019-05-22T20:27:01.186Z,9.83
2019-05-22T20:32:20.748Z,9.80
2019-05-22T20:37:40.452Z,10.23
2019-05-22T20:42:59.762Z,10.70
2019-05-22T20:48:25.760Z,11.00
2019-05-22T20:53:54.195Z,11.03
2019-05-22T20:59:06.618Z,11.10
2019-05-22T21:04:27.215Z,11.73
2019-05-22T21:09:45.690Z,12.07
2019-05-22T21:15:05.798Z,10.27
2019-05-22T21:20:26.075Z,13.40
2019-05-22T21:25:44.769Z,12.57
2019-05-22T21:31:04.162Z,12.07
2019-05-22T21:36:24.715Z,11.40
2019-05-22T21:41:43.836Z,11.53
2019-05-22T21:47:03.253Z,12.50
2019-05-22T21:52:22.545Z,13.85
2019-05-22T21:57:42.242Z,13.97
2019-05-22T22:03:03.358Z,15.40
2019-05-22T22:08:22.030Z,16.00
2019-05-22T22:13:42.262Z,15.57
2019-05-22T22:19:01.406Z,14.17
2019-05-22T22:24:20.051Z,15.90
2019-05-22T22:29:38.598Z,15.50
2019-05-22T22:34:57.726Z,14.13
2019-05-22T22:40:18.660Z,16.52
2019-05-22T22:45:43.390Z,18.03
2019-05-22T22:51:05.927Z,16.03
2019-05-22T22:56:25.459Z,16.90
2019-05-22T23:01:47.148Z,18.43
2019-05-22T23:07:07.930Z,16.77
2019-05-22T23:12:28.160Z,18.57
2019-05-22T23:17:48.312Z,20.80
2019-05-22T23:23:07.025Z,22.03
2019-05-22T23:28:34.622Z,22.40
2019-05-22T23:33:46.147Z,19.90
2019-05-22T23:39:08.600Z,18.48
2019-05-22T23:44:28.388Z,17.40
2019-05-22T23:49:46.950Z,18.20
2019-05-22T23:55:09.758Z,22.10
